createdAt,value
2023-05-13T00:01:21.012Z,100.00
2023-05-13T00:03:47.737Z,100.00
2023-05-13T00:06:14.653Z,100.00
2023-05-13T00:08:41.243Z,100.00
2023-05-13T00:11:08.338Z,100.00
2023-05-13T00:13:34.955Z,100.00
2023-05-13T00:16:02.836Z,100.00
2023-05-13T00:18:29.867Z,100.00
2023-05-13T00:20:56.560Z,100.00
2023-05-13T00:23:23.266Z,100.00
2023-05-13T00:25:49.885Z,100.00
2023-05-13T00:28:16.976Z,100.00
2023-05-13T00:30:45.486Z,100.00
2023-05-13T00:33:12.197Z,100.00
2023-05-13T00:35:38.885Z,100.00
2023-05-13T00:38:05.478Z,100.00
2023-05-13T00:40:34.572Z,100.00
2023-05-13T00:43:01.260Z,100.00
2023-05-13T00:45:28.022Z,100.00
2023-05-13T00:47:54.820Z,100.00
2023-05-13T00:50:21.754Z,100.00
2023-05-13T00:52:51.057Z,100.00
2023-05-13T00:55:18.115Z,100.00
2023-05-13T00:57:44.645Z,100.00
2023-05-13T01:00:11.768Z,100.00
2023-05-13T01:03:01.068Z,100.00
2023-05-13T01:05:42.423Z,100.00
2023-05-13T01:08:11.908Z,100.00
2023-05-13T01:10:47.629Z,100.00
2023-05-13T01:13:23.712Z,100.00
2023-05-13T01:15:59.872Z,100.00
2023-05-13T01:18:36.918Z,100.00
2023-05-13T01:21:05.330Z,100.00
2023-05-13T01:23:32.112Z,100.00
2023-05-13T01:25:58.692Z,100.00
2023-05-13T01:28:25.545Z,100.00
2023-05-13T01:30:52.499Z,100.00
2023-05-13T01:33:19.296Z,100.00
2023-05-13T01:35:47.445Z,100.00
2023-05-13T01:38:15.140Z,100.00
2023-05-13T01:40:42.687Z,100.00
2023-05-13T01:43:09.307Z,100.00
2023-05-13T01:45:36.140Z,100.00
2023-05-13T01:48:02.871Z,100.00
2023-05-13T01:50:29.740Z,100.00
2023-05-13T01:52:57.392Z,100.00
2023-05-13T01:55:23.957Z,100.00
2023-05-13T01:57:50.593Z,100.00
2023-05-13T02:00:17.549Z,100.00
2023-05-13T02:02:44.640Z,100.00
2023-05-13T02:05:11.332Z,100.00
2023-05-13T02:07:37.945Z,100.00
2023-05-13T02:10:04.911Z,100.00
2023-05-13T02:12:31.444Z,100.00
2023-05-13T02:14:58.175Z,100.00
2023-05-13T02:17:24.817Z,100.00
2023-05-13T02:19:51.548Z,100.00
2023-05-13T02:22:18.126Z,100.00
2023-05-13T02:24:44.741Z,100.00
2023-05-13T02:27:12.938Z,100.00
2023-05-13T02:29:39.720Z,100.00
2023-05-13T02:32:06.610Z,100.00
2023-05-13T02:34:33.253Z,100.00
2023-05-13T02:36:59.806Z,100.00
2023-05-13T02:39:26.879Z,100.00
2023-05-13T02:41:53.482Z,100.00
2023-05-13T02:44:20.095Z,100.00
2023-05-13T02:46:46.639Z,100.00
2023-05-13T02:49:14.091Z,100.00
2023-05-13T02:51:40.869Z,100.00
2023-05-13T02:54:07.465Z,100.00
2023-05-13T02:56:34.114Z,100.00
2023-05-13T02:59:00.960Z,100.00
2023-05-13T03:01:27.696Z,100.00
2023-05-13T03:03:54.361Z,100.00
2023-05-13T03:06:21.030Z,100.00
2023-05-13T03:08:47.704Z,100.00
2023-05-13T03:11:14.268Z,100.00
2023-05-13T03:13:40.944Z,100.00
2023-05-13T03:16:07.645Z,100.00
2023-05-13T03:18:35.382Z,100.00
2023-05-13T03:21:02.082Z,100.00
2023-05-13T03:23:29.951Z,100.00
2023-05-13T03:25:56.623Z,100.00
2023-05-13T03:28:23.167Z,100.00
2023-05-13T03:30:49.928Z,100.00
2023-05-13T03:33:16.572Z,100.00
2023-05-13T03:35:43.120Z,100.00
2023-05-13T03:38:09.683Z,100.00
2023-05-13T03:40:36.262Z,100.00
2023-05-13T03:43:02.889Z,100.00
2023-05-13T03:45:29.476Z,100.00
2023-05-13T03:47:56.814Z,100.00
2023-05-13T03:50:23.687Z,100.00
2023-05-13T03:52:50.736Z,100.00
2023-05-13T03:55:17.301Z,100.00
2023-05-13T03:57:48.342Z,100.00
2023-05-13T04:00:15.691Z,100.00
2023-05-13T04:02:42.518Z,100.00
2023-05-13T04:05:09.653Z,100.00
2023-05-13T04:07:36.386Z,100.00
2023-05-13T04:10:03.058Z,100.00
2023-05-13T04:12:30.919Z,100.00
2023-05-13T04:14:57.540Z,100.00
2023-05-13T04:17:24.259Z,100.00
2023-05-13T04:19:54.790Z,100.00
2023-05-13T04:22:21.977Z,100.00
2023-05-13T04:24:52.044Z,100.00
2023-05-13T04:27:18.743Z,100.00
2023-05-13T04:29:45.444Z,100.00
2023-05-13T04:32:16.062Z,100.00
2023-05-13T04:34:42.828Z,100.00
2023-05-13T04:37:09.508Z,100.00
2023-05-13T04:39:36.220Z,100.00
2023-05-13T04:42:02.800Z,100.00
2023-05-13T04:44:29.405Z,100.00
2023-05-13T04:46:55.993Z,100.00
2023-05-13T04:49:22.560Z,100.00
2023-05-13T04:51:49.370Z,100.00
2023-05-13T04:54:16.253Z,100.00
2023-05-13T04:56:42.859Z,100.00
2023-05-13T04:59:09.850Z,100.00
2023-05-13T05:01:36.494Z,100.00
2023-05-13T05:04:03.127Z,100.00
2023-05-13T05:06:29.694Z,100.00
2023-05-13T05:08:56.643Z,100.00
2023-05-13T05:11:23.206Z,100.00
2023-05-13T05:13:49.768Z,100.00
2023-05-13T05:16:16.352Z,100.00
2023-05-13T05:18:43.626Z,100.00
2023-05-13T05:21:10.668Z,100.00
2023-05-13T05:23:37.267Z,100.00
2023-05-13T05:26:10.972Z,100.00
2023-05-13T05:28:40.113Z,100.00
2023-05-13T05:31:07.226Z,100.00
2023-05-13T05:33:33.825Z,100.00
2023-05-13T05:36:00.391Z,100.00
2023-05-13T05:38:27.225Z,100.00
2023-05-13T05:40:54.013Z,100.00
2023-05-13T05:43:20.684Z,100.00
2023-05-13T05:45:47.315Z,100.00
2023-05-13T05:48:13.948Z,100.00
2023-05-13T05:50:41.640Z,100.00
2023-05-13T05:53:08.174Z,100.00
2023-05-13T05:55:34.889Z,100.00
2023-05-13T05:58:05.471Z,100.00
2023-05-13T06:00:33.367Z,100.00
2023-05-13T06:03:00.213Z,100.00
2023-05-13T06:05:27.032Z,100.00
2023-05-13T06:07:53.609Z,100.00
2023-05-13T06:10:20.599Z,100.00
2023-05-13T06:12:47.276Z,100.00
2023-05-13T06:15:13.876Z,100.00
2023-05-13T06:17:40.547Z,100.00
2023-05-13T06:20:07.523Z,100.00
2023-05-13T06:22:34.447Z,100.00
2023-05-13T06:25:01.090Z,100.00
2023-05-13T06:27:27.673Z,100.00
2023-05-13T06:29:54.302Z,100.00
2023-05-13T06:32:20.943Z,100.00
2023-05-13T06:34:48.396Z,100.00
2023-05-13T06:37:15.461Z,100.00
2023-05-13T06:39:42.037Z,100.00
2023-05-13T06:42:08.611Z,100.00
2023-05-13T06:44:35.320Z,100.00
2023-05-13T06:47:03.067Z,100.00
2023-05-13T06:49:29.691Z,100.00
2023-05-13T06:51:56.693Z,100.00
2023-05-13T06:54:23.305Z,100.00
2023-05-13T06:56:49.951Z,100.00
2023-05-13T06:59:16.570Z,100.00
2023-05-13T07:01:43.311Z,100.00
2023-05-13T07:04:09.941Z,100.00
2023-05-13T07:06:36.772Z,100.00
2023-05-13T07:09:08.015Z,100.00
2023-05-13T07:11:35.912Z,100.00
2023-05-13T07:14:02.513Z,100.00
2023-05-13T07:16:29.326Z,100.00
2023-05-13T07:18:55.900Z,100.00
2023-05-13T07:21:22.536Z,100.00
2023-05-13T07:23:49.241Z,100.00
2023-05-13T07:26:15.882Z,100.00
2023-05-13T07:28:43.455Z,100.00
2023-05-13T07:31:10.434Z,100.00
2023-05-13T07:33:37.189Z,100.00
2023-05-13T07:36:04.035Z,100.00
2023-05-13T07:38:30.625Z,100.00
2023-05-13T07:40:57.199Z,100.00
2023-05-13T07:43:24.094Z,100.00
2023-05-13T07:45:51.389Z,100.00
2023-05-13T07:48:18.661Z,99.94
2023-05-13T07:50:46.115Z,98.96
2023-05-13T07:53:12.942Z,98.94
2023-05-13T07:55:39.583Z,98.70
2023-05-13T07:58:06.698Z,98.06
2023-05-13T08:00:33.399Z,96.35
2023-05-13T08:03:00.104Z,97.46
2023-05-13T08:05:26.843Z,97.69
2023-05-13T08:07:53.438Z,99.42
2023-05-13T08:10:20.088Z,98.84
2023-05-13T08:12:51.173Z,97.86
2023-05-13T08:15:19.078Z,98.16
2023-05-13T08:17:45.752Z,97.43
2023-05-13T08:20:12.525Z,98.30
2023-05-13T08:22:39.128Z,98.66
2023-05-13T08:25:07.139Z,99.41
2023-05-13T08:27:35.028Z,99.95
2023-05-13T08:30:01.617Z,98.99
2023-05-13T08:32:28.218Z,99.27
2023-05-13T08:34:54.857Z,99.14
2023-05-13T08:37:21.759Z,99.59
2023-05-13T08:39:48.311Z,99.80
2023-05-13T08:42:19.359Z,98.85
2023-05-13T08:44:46.903Z,99.66
2023-05-13T08:47:16.044Z,99.14
2023-05-13T08:49:42.896Z,97.34
2023-05-13T08:52:09.481Z,97.00
2023-05-13T08:54:37.993Z,97.61
2023-05-13T08:57:05.077Z,95.67
2023-05-13T08:59:31.665Z,95.29
2023-05-13T09:02:00.291Z,95.50
2023-05-13T09:04:26.952Z,95.41
2023-05-13T09:06:53.888Z,94.69
2023-05-13T09:09:20.953Z,92.73
2023-05-13T09:11:48.675Z,90.98
2023-05-13T09:14:19.533Z,90.20
2023-05-13T09:16:47.925Z,90.66
2023-05-13T09:19:14.726Z,91.18
2023-05-13T09:21:43.746Z,88.79
2023-05-13T09:24:11.670Z,90.51
2023-05-13T09:26:39.101Z,88.90
2023-05-13T09:29:20.674Z,90.07
2023-05-13T09:31:51.222Z,87.43
2023-05-13T09:34:27.915Z,87.67
2023-05-13T09:37:08.354Z,87.19
2023-05-13T09:39:39.867Z,88.21
2023-05-13T09:42:14.659Z,84.75
2023-05-13T09:44:42.233Z,83.87
2023-05-13T09:47:13.898Z,84.82
2023-05-13T09:49:56.898Z,84.47
2023-05-13T09:52:23.508Z,85.03
2023-05-13T09:54:50.114Z,83.63
2023-05-13T09:57:16.755Z,81.94
2023-05-13T09:59:43.390Z,84.01
2023-05-13T10:02:13.031Z,85.49
2023-05-13T10:04:40.162Z,83.62
2023-05-13T10:07:08.620Z,82.09
2023-05-13T10:09:36.786Z,78.08
2023-05-13T10:12:06.752Z,76.17
2023-05-13T10:14:33.469Z,75.15
2023-05-13T10:17:00.417Z,77.97
2023-05-13T10:19:27.219Z,77.06
2023-05-13T10:21:54.459Z,78.32
2023-05-13T10:24:22.229Z,78.20
2023-05-13T10:26:52.727Z,78.14
2023-05-13T10:29:19.477Z,77.93
2023-05-13T10:31:47.878Z,77.01
2023-05-13T10:34:14.681Z,75.79
2023-05-13T10:37:14.004Z,76.62
2023-05-13T10:40:06.629Z,76.62
2023-05-13T10:42:44.919Z,77.09
2023-05-13T10:45:11.541Z,77.28
2023-05-13T10:47:39.165Z,77.12
2023-05-13T10:50:07.713Z,78.57
2023-05-13T10:53:00.485Z,76.64
2023-05-13T10:55:28.013Z,77.43
2023-05-13T10:58:12.594Z,76.90
2023-05-13T11:00:41.484Z,79.67
2023-05-13T11:03:12.234Z,81.12
2023-05-13T11:05:41.397Z,79.33
2023-05-13T11:08:08.078Z,78.50
2023-05-13T11:10:34.932Z,78.21
2023-05-13T11:13:09.575Z,78.94
2023-05-13T11:15:48.985Z,79.09
2023-05-13T11:18:15.707Z,78.15
2023-05-13T11:20:53.482Z,77.24
2023-05-13T11:23:21.147Z,77.12
2023-05-13T11:26:12.450Z,77.18
2023-05-13T11:29:00.366Z,76.44
2023-05-13T11:31:29.094Z,77.72
2023-05-13T11:34:09.617Z,78.02
2023-05-13T11:36:38.500Z,77.76
2023-05-13T11:39:22.538Z,79.53
2023-05-13T11:41:54.773Z,79.16
2023-05-13T11:44:23.017Z,78.46
2023-05-13T11:46:56.669Z,79.10
2023-05-13T11:49:55.977Z,77.88
2023-05-13T11:52:22.683Z,79.18
2023-05-13T11:54:54.608Z,79.89
2023-05-13T11:57:28.632Z,79.00
2023-05-13T11:59:59.910Z,78.42
2023-05-13T12:02:29.384Z,79.67
2023-05-13T12:04:59.909Z,78.65
2023-05-13T12:07:27.437Z,80.16
2023-05-13T12:09:57.601Z,79.95
2023-05-13T12:12:25.278Z,78.17
2023-05-13T12:14:53.000Z,78.65
2023-05-13T12:17:20.876Z,79.19
2023-05-13T12:20:06.797Z,78.28
2023-05-13T12:22:37.748Z,78.32
2023-05-13T12:25:35.795Z,77.08
2023-05-13T12:28:09.274Z,76.63
2023-05-13T12:30:41.000Z,76.14
2023-05-13T12:33:18.922Z,74.87
2023-05-13T12:35:48.429Z,74.80
2023-05-13T12:38:20.011Z,75.45
2023-05-13T12:40:47.997Z,76.19
2023-05-13T12:43:16.646Z,74.54
2023-05-13T12:45:45.977Z,74.80
2023-05-13T12:48:14.468Z,73.82
2023-05-13T12:50:41.098Z,74.46
2023-05-13T12:53:07.947Z,76.42
2023-05-13T12:55:39.926Z,73.54
2023-05-13T12:58:10.980Z,74.84
2023-05-13T13:00:37.977Z,73.39
2023-05-13T13:03:04.788Z,74.03
2023-05-13T13:05:31.944Z,72.89
2023-05-13T13:07:58.645Z,74.17
2023-05-13T13:10:25.227Z,74.39
2023-05-13T13:12:52.277Z,73.68
2023-05-13T13:15:18.990Z,73.74
2023-05-13T13:17:45.693Z,75.06
2023-05-13T13:20:12.557Z,73.67
2023-05-13T13:22:39.265Z,73.00
2023-05-13T13:25:06.864Z,73.06
2023-05-13T13:27:35.037Z,73.05
2023-05-13T13:30:01.885Z,72.58
2023-05-13T13:32:28.469Z,73.26
2023-05-13T13:34:55.178Z,72.82
2023-05-13T13:37:21.947Z,72.84
2023-05-13T13:39:48.501Z,71.23
2023-05-13T13:42:15.086Z,71.57
2023-05-13T13:44:41.625Z,72.08
2023-05-13T13:47:09.689Z,71.79
2023-05-13T13:49:36.443Z,73.01
2023-05-13T13:52:03.045Z,73.06
2023-05-13T13:54:29.691Z,71.84
2023-05-13T13:56:56.377Z,72.50
2023-05-13T13:59:23.186Z,73.37
2023-05-13T14:01:49.831Z,72.49
2023-05-13T14:04:20.299Z,72.04
2023-05-13T14:06:47.174Z,71.72
2023-05-13T14:09:13.866Z,72.62
2023-05-13T14:11:40.514Z,72.41
2023-05-13T14:14:08.369Z,71.53
2023-05-13T14:16:35.876Z,71.18
2023-05-13T14:19:02.651Z,72.11
2023-05-13T14:21:29.288Z,71.00
2023-05-13T14:23:55.924Z,70.29
2023-05-13T14:26:22.510Z,71.44
2023-05-13T14:28:49.082Z,69.50
2023-05-13T14:31:15.859Z,69.58
2023-05-13T14:33:42.443Z,68.92
2023-05-13T14:36:11.137Z,70.93
2023-05-13T14:38:39.838Z,71.16
2023-05-13T14:41:06.435Z,71.08
2023-05-13T14:43:33.051Z,71.04
2023-05-13T14:45:59.696Z,71.83
2023-05-13T14:48:26.787Z,71.40
2023-05-13T14:50:54.114Z,72.85
2023-05-13T14:53:20.922Z,71.25
2023-05-13T14:55:49.417Z,71.03
2023-05-13T14:58:18.022Z,70.64
2023-05-13T15:00:44.762Z,70.73
2023-05-13T15:03:11.853Z,71.66
2023-05-13T15:05:38.822Z,71.59
2023-05-13T15:08:05.466Z,71.78
2023-05-13T15:10:32.059Z,72.40
2023-05-13T15:12:59.026Z,73.90
2023-05-13T15:15:25.701Z,72.96
2023-05-13T15:17:52.904Z,73.77
2023-05-13T15:20:19.672Z,73.58
2023-05-13T15:22:46.347Z,73.87
2023-05-13T15:25:13.119Z,73.03
2023-05-13T15:27:39.709Z,70.91
2023-05-13T15:30:07.156Z,72.48
2023-05-13T15:32:33.792Z,72.23
2023-05-13T15:35:00.396Z,71.86
2023-05-13T15:37:27.058Z,71.22
2023-05-13T15:39:54.256Z,71.32
2023-05-13T15:42:21.375Z,71.33
2023-05-13T15:44:47.947Z,71.61
2023-05-13T15:47:14.582Z,71.03
2023-05-13T15:49:41.372Z,71.38
2023-05-13T15:52:07.920Z,71.54
2023-05-13T15:54:34.721Z,70.66
2023-05-13T15:57:01.337Z,70.45
2023-05-13T15:59:27.893Z,71.04
2023-05-13T16:01:54.556Z,71.44
2023-05-13T16:04:21.305Z,71.25
2023-05-13T16:06:47.901Z,70.54
2023-05-13T16:09:14.590Z,71.51
2023-05-13T16:11:43.371Z,71.25
2023-05-13T16:14:10.018Z,71.45
2023-05-13T16:16:36.592Z,71.29
2023-05-13T16:19:03.944Z,70.12
2023-05-13T16:21:31.708Z,71.10
2023-05-13T16:23:58.419Z,71.58
2023-05-13T16:26:25.040Z,71.57
2023-05-13T16:28:51.894Z,70.68
2023-05-13T16:31:18.651Z,71.61
2023-05-13T16:33:45.272Z,72.07
2023-05-13T16:36:12.004Z,72.69
2023-05-13T16:38:41.378Z,72.94
2023-05-13T16:41:08.658Z,72.88
2023-05-13T16:43:35.279Z,72.78
2023-05-13T16:46:01.982Z,72.07
2023-05-13T16:48:28.719Z,72.59
2023-05-13T16:50:56.270Z,73.42
2023-05-13T16:53:23.252Z,71.24
2023-05-13T16:55:50.207Z,71.57
2023-05-13T16:58:17.370Z,70.29
2023-05-13T17:00:44.537Z,70.95
2023-05-13T17:03:13.341Z,71.35
2023-05-13T17:05:40.448Z,71.40
2023-05-13T17:08:06.989Z,72.14
2023-05-13T17:10:33.718Z,72.61
2023-05-13T17:13:00.309Z,72.43
2023-05-13T17:15:26.956Z,72.69
2023-05-13T17:17:53.623Z,72.74
2023-05-13T17:20:20.494Z,73.56
2023-05-13T17:22:47.609Z,73.39
2023-05-13T17:25:14.876Z,73.11
2023-05-13T17:27:41.542Z,73.83
2023-05-13T17:30:09.052Z,73.59
2023-05-13T17:32:35.914Z,73.28
2023-05-13T17:35:04.078Z,73.59
2023-05-13T17:37:30.678Z,74.17
2023-05-13T17:40:00.742Z,74.67
2023-05-13T17:42:29.025Z,75.25
2023-05-13T17:44:56.056Z,77.21
2023-05-13T17:47:22.770Z,77.71
2023-05-13T17:49:49.619Z,77.93
2023-05-13T17:52:16.187Z,77.78
2023-05-13T17:54:42.752Z,77.90
2023-05-13T17:57:11.027Z,78.00
2023-05-13T17:59:37.773Z,78.29
2023-05-13T18:02:04.525Z,78.21
2023-05-13T18:04:31.255Z,78.75
2023-05-13T18:06:57.856Z,78.73
2023-05-13T18:09:24.520Z,78.83
2023-05-13T18:11:51.137Z,79.12
2023-05-13T18:14:17.791Z,79.16
2023-05-13T18:16:44.465Z,79.71
2023-05-13T18:19:11.090Z,80.05
2023-05-13T18:21:37.804Z,80.23
2023-05-13T18:24:04.704Z,80.54
2023-05-13T18:26:31.272Z,81.01
2023-05-13T18:28:57.808Z,81.62
2023-05-13T18:31:24.442Z,82.04
2023-05-13T18:33:51.108Z,82.16
2023-05-13T18:36:17.756Z,82.42
2023-05-13T18:38:45.920Z,82.78
2023-05-13T18:41:12.618Z,83.51
2023-05-13T18:43:39.189Z,83.43
2023-05-13T18:46:06.191Z,83.67
2023-05-13T18:48:32.771Z,83.91
2023-05-13T18:50:59.437Z,83.84
2023-05-13T18:53:26.046Z,83.99
2023-05-13T18:55:52.928Z,84.02
2023-05-13T18:58:19.565Z,84.46
2023-05-13T19:00:46.296Z,84.93
2023-05-13T19:03:12.976Z,84.87
2023-05-13T19:05:39.648Z,84.73
2023-05-13T19:08:07.994Z,84.99
2023-05-13T19:10:39.364Z,85.10
2023-05-13T19:13:07.189Z,84.66
2023-05-13T19:15:34.208Z,84.60
2023-05-13T19:18:01.128Z,84.98
2023-05-13T19:20:27.961Z,85.11
2023-05-13T19:22:54.505Z,85.13
2023-05-13T19:25:21.110Z,85.19
2023-05-13T19:27:49.374Z,85.04
2023-05-13T19:30:16.138Z,84.83
2023-05-13T19:32:43.686Z,84.79
2023-05-13T19:35:11.163Z,84.39
2023-05-13T19:37:37.806Z,84.73
2023-05-13T19:40:05.033Z,85.13
2023-05-13T19:42:31.702Z,85.29
2023-05-13T19:44:58.255Z,85.22
2023-05-13T19:47:26.923Z,85.53
2023-05-13T19:49:53.618Z,85.67
2023-05-13T19:52:20.260Z,85.55
2023-05-13T19:54:46.823Z,85.62
2023-05-13T19:57:13.455Z,85.79
2023-05-13T19:59:41.680Z,86.29
2023-05-13T20:02:08.827Z,86.26
2023-05-13T20:04:35.676Z,86.29
2023-05-13T20:07:02.284Z,86.57
2023-05-13T20:09:28.865Z,86.95
2023-05-13T20:11:55.526Z,86.99
2023-05-13T20:14:28.747Z,86.88
2023-05-13T20:16:55.398Z,87.28
2023-05-13T20:19:22.161Z,87.93
2023-05-13T20:21:48.835Z,87.73
2023-05-13T20:24:15.781Z,87.52
2023-05-13T20:26:42.327Z,87.62
2023-05-13T20:29:08.856Z,87.88
2023-05-13T20:31:35.496Z,88.08
2023-05-13T20:34:03.412Z,87.87
2023-05-13T20:36:30.122Z,87.94
2023-05-13T20:38:56.670Z,88.14
2023-05-13T20:41:23.851Z,88.60
2023-05-13T20:43:50.584Z,88.57
2023-05-13T20:46:17.527Z,88.66
2023-05-13T20:48:44.198Z,88.79
2023-05-13T20:51:10.765Z,89.26
2023-05-13T20:53:37.728Z,89.36
2023-05-13T20:56:04.926Z,89.50
2023-05-13T20:58:31.531Z,89.70
2023-05-13T21:00:58.174Z,90.05
2023-05-13T21:03:25.132Z,90.00
2023-05-13T21:05:51.819Z,90.35
2023-05-13T21:08:18.468Z,90.13
2023-05-13T21:10:45.063Z,90.67
2023-05-13T21:13:11.832Z,90.65
2023-05-13T21:15:38.673Z,90.42
2023-05-13T21:18:05.459Z,90.63
2023-05-13T21:20:32.784Z,90.34
2023-05-13T21:23:00.984Z,90.32
2023-05-13T21:25:27.718Z,90.28
2023-05-13T21:27:54.404Z,90.46
2023-05-13T21:30:21.095Z,90.81
2023-05-13T21:32:47.860Z,90.95
2023-05-13T21:35:14.472Z,90.63
2023-05-13T21:37:41.087Z,90.87
2023-05-13T21:40:08.705Z,90.81
2023-05-13T21:42:35.761Z,90.89
2023-05-13T21:45:02.920Z,90.86
2023-05-13T21:47:29.653Z,90.68
2023-05-13T21:49:56.440Z,90.93
2023-05-13T21:52:23.036Z,91.09
2023-05-13T21:54:49.704Z,91.22
2023-05-13T21:57:16.676Z,91.36
2023-05-13T21:59:43.272Z,91.40
2023-05-13T22:02:10.213Z,91.16
2023-05-13T22:04:36.954Z,91.51
2023-05-13T22:07:03.658Z,91.58
2023-05-13T22:09:30.250Z,91.82
2023-05-13T22:11:56.824Z,91.59
2023-05-13T22:14:23.396Z,91.74
2023-05-13T22:17:00.924Z,91.83
2023-05-13T22:19:34.973Z,92.22
2023-05-13T22:22:01.743Z,92.35
2023-05-13T22:24:28.295Z,92.41
2023-05-13T22:26:54.889Z,92.26
2023-05-13T22:29:21.560Z,92.12
2023-05-13T22:31:48.164Z,92.73
2023-05-13T22:34:14.888Z,92.49
2023-05-13T22:36:43.810Z,92.77
2023-05-13T22:39:12.229Z,92.59
2023-05-13T22:41:38.968Z,92.85
2023-05-13T22:44:05.774Z,92.59
2023-05-13T22:46:32.479Z,92.33
2023-05-13T22:48:59.163Z,92.67
2023-05-13T22:51:25.751Z,92.57
2023-05-13T22:53:52.334Z,92.40
2023-05-13T22:56:18.955Z,92.20
2023-05-13T22:58:46.132Z,91.83
2023-05-13T23:01:13.004Z,91.98
2023-05-13T23:03:39.637Z,91.65
2023-05-13T23:06:06.362Z,91.27
2023-05-13T23:08:32.953Z,91.30
2023-05-13T23:10:59.600Z,90.99
2023-05-13T23:13:26.295Z,90.75
2023-05-13T23:15:52.843Z,90.99
2023-05-13T23:18:19.630Z,90.88
2023-05-13T23:20:51.180Z,90.72
2023-05-13T23:23:17.808Z,90.56
2023-05-13T23:25:48.248Z,89.76
2023-05-13T23:28:15.190Z,89.45
2023-05-13T23:30:42.043Z,89.52
2023-05-13T23:33:08.980Z,89.34
2023-05-13T23:35:35.785Z,89.50
2023-05-13T23:38:02.589Z,89.60
2023-05-13T23:40:29.182Z,89.54
2023-05-13T23:42:55.755Z,88.98
2023-05-13T23:45:22.423Z,88.70
2023-05-13T23:47:50.358Z,88.53
2023-05-13T23:50:17.061Z,88.59
2023-05-13T23:52:43.775Z,88.67
2023-05-13T23:55:10.483Z,88.47
2023-05-13T23:57:37.035Z,88.63
